Time;durP1;ratioP1;P1;durP2;ratioP2;P2;SDS_P1;SDS_P2;PMS_P1;PMS_P2;Temp;Humidity;BMP_temperature;BMP_pressure;BME280_temperature;BME280_humidity;BME280_pressure;Samples;Min_cycle;Max_cycle;Signal;HPM_P1;HPM_P2
2023/06/13 00:01:01;;;;;;;6.82;4.15;;;;;;;;;;5041338;28;20471;-80
2023/06/13 00:03:29;;;;;;;6.88;4.13;;;;;;;;;;5033335;28;20077;-78
2023/06/13 00:05:56;;;;;;;6.68;4.88;;;;;;;;;;5022631;28;20061;-80
2023/06/13 00:08:24;;;;;;;7.03;3.90;;;;;;;;;;5021874;28;20058;-79
2023/06/13 00:10:51;;;;;;;7.13;4.30;;;;;;;;;;5035074;28;20124;-79
2023/06/13 00:13:19;;;;;;;5.43;3.88;;;;;;;;;;5042138;28;20095;-78
2023/06/13 00:15:50;;;;;;;6.93;4.00;;;;;;;;;;5041796;28;20049;-79
2023/06/13 00:18:17;;;;;;;6.43;4.22;;;;;;;;;;5040418;28;20091;-80
2023/06/13 00:20:45;;;;;;;7.07;4.25;;;;;;;;;;5041844;28;20112;-77
2023/06/13 00:23:12;;;;;;;7.78;4.38;;;;;;;;;;5040296;28;20049;-78
2023/06/13 00:25:39;;;;;;;8.35;4.25;;;;;;;;;;5040515;28;20099;-78
2023/06/13 00:28:06;;;;;;;7.25;4.18;;;;;;;;;;5041442;28;20056;-77
2023/06/13 00:30:34;;;;;;;6.65;4.22;;;;;;;;;;5041698;28;20060;-79
2023/06/13 00:33:01;;;;;;;8.90;4.57;;;;;;;;;;5040686;28;20091;-77
2023/06/13 00:35:27;;;;;;;6.63;4.07;;;;;;;;;;5038579;28;20068;-77
2023/06/13 00:37:57;;;;;;;7.07;4.10;;;;;;;;;;5038714;28;20083;-77
2023/06/13 00:40:24;;;;;;;8.30;4.65;;;;;;;;;;5039181;28;20045;-79
2023/06/13 00:42:52;;;;;;;7.45;4.43;;;;;;;;;;5039124;28;20055;-76
2023/06/13 00:45:21;;;;;;;6.68;4.00;;;;;;;;;;5039136;28;20527;-77
2023/06/13 00:47:54;;;;;;;8.43;3.87;;;;;;;;;;5039646;28;20053;-77
2023/06/13 00:50:25;;;;;;;6.97;4.30;;;;;;;;;;5039666;28;20041;-76
2023/06/13 00:52:53;;;;;;;7.50;3.83;;;;;;;;;;5057014;28;20034;-80
2023/06/13 00:55:21;;;;;;;7.35;4.13;;;;;;;;;;5034655;28;20062;-77
2023/06/13 00:57:51;;;;;;;7.22;4.43;;;;;;;;;;5028124;28;20096;-77
2023/06/13 01:00:19;;;;;;;6.65;4.15;;;;;;;;;;5035774;28;20057;-77
2023/06/13 01:02:45;;;;;;;6.78;4.20;;;;;;;;;;5017080;28;20060;-76
2023/06/13 01:05:13;;;;;;;6.75;4.40;;;;;;;;;;5016040;28;20137;-76
2023/06/13 01:07:42;;;;;;;7.30;3.90;;;;;;;;;;5015888;28;20046;-78
2023/06/13 01:10:11;;;;;;;7.25;3.70;;;;;;;;;;5016472;28;20104;-78
2023/06/13 01:12:47;;;;;;;7.40;4.40;;;;;;;;;;5015878;28;20549;-76
2023/06/13 01:15:17;;;;;;;6.35;3.90;;;;;;;;;;5022972;28;20046;-77
2023/06/13 01:17:49;;;;;;;6.20;3.88;;;;;;;;;;5024843;28;20126;-79
2023/06/13 01:20:19;;;;;;;7.10;3.80;;;;;;;;;;5025557;28;20053;-78
2023/06/13 01:22:54;;;;;;;6.63;4.10;;;;;;;;;;5024589;28;20042;-78
2023/06/13 01:25:30;;;;;;;6.70;3.90;;;;;;;;;;5024926;28;20050;-77
2023/06/13 01:27:59;;;;;;;5.75;3.85;;;;;;;;;;5024746;28;20046;-78
2023/06/13 01:30:26;;;;;;;5.75;3.63;;;;;;;;;;5021894;28;20100;-78
2023/06/13 01:32:54;;;;;;;6.03;3.83;;;;;;;;;;5019621;28;20068;-79
2023/06/13 01:35:22;;;;;;;6.43;3.70;;;;;;;;;;5019236;28;20052;-78
2023/06/13 01:37:49;;;;;;;7.40;3.70;;;;;;;;;;5018396;28;20113;-78
2023/06/13 01:40:16;;;;;;;4.88;3.42;;;;;;;;;;5017867;28;20493;-78
2023/06/13 01:42:43;;;;;;;7.22;3.80;;;;;;;;;;5015221;28;20107;-77
2023/06/13 01:45:12;;;;;;;5.80;3.55;;;;;;;;;;5015199;28;20077;-79
2023/06/13 01:47:45;;;;;;;7.55;3.55;;;;;;;;;;5014767;28;20056;-78
2023/06/13 01:50:21;;;;;;;6.25;3.42;;;;;;;;;;5014892;28;20382;-78
2023/06/13 01:52:55;;;;;;;6.03;3.97;;;;;;;;;;5014667;28;20104;-77
2023/06/13 01:55:32;;;;;;;6.05;3.80;;;;;;;;;;5014564;28;20489;-78
2023/06/13 01:58:04;;;;;;;5.60;3.78;;;;;;;;;;5014328;28;20058;-78
2023/06/13 02:00:33;;;;;;;6.88;3.95;;;;;;;;;;5013953;28;20054;-77
2023/06/13 02:03:02;;;;;;;6.75;3.90;;;;;;;;;;5014313;28;20085;-78
2023/06/13 02:05:29;;;;;;;6.13;3.60;;;;;;;;;;5014151;28;20604;-78
2023/06/13 02:07:57;;;;;;;7.18;4.45;;;;;;;;;;5014707;28;20132;-79
2023/06/13 02:10:24;;;;;;;6.75;4.57;;;;;;;;;;5020814;28;20054;-80
2023/06/13 02:12:51;;;;;;;6.80;4.13;;;;;;;;;;5015865;28;20052;-77
2023/06/13 02:15:18;;;;;;;5.68;3.53;;;;;;;;;;5014539;28;20045;-77
2023/06/13 02:17:47;;;;;;;6.22;3.65;;;;;;;;;;5014140;28;20133;-80
2023/06/13 02:20:14;;;;;;;5.60;4.07;;;;;;;;;;5014296;28;20123;-77
2023/06/13 02:22:41;;;;;;;6.28;3.72;;;;;;;;;;5013724;28;20129;-75
2023/06/13 02:25:08;;;;;;;5.32;3.50;;;;;;;;;;5013871;28;20132;-77
2023/06/13 02:27:35;;;;;;;6.40;3.75;;;;;;;;;;5013166;28;20562;-78
2023/06/13 02:30:03;;;;;;;5.43;3.75;;;;;;;;;;5013923;28;20092;-78
2023/06/13 02:32:30;;;;;;;5.93;4.20;;;;;;;;;;5014676;28;20129;-76
2023/06/13 02:34:58;;;;;;;6.55;3.75;;;;;;;;;;5015071;28;20161;-77
2023/06/13 02:37:24;;;;;;;8.35;4.13;;;;;;;;;;5014237;28;20110;-77
2023/06/13 02:39:51;;;;;;;6.05;3.92;;;;;;;;;;5013400;28;20095;-78
2023/06/13 02:42:18;;;;;;;6.07;4.03;;;;;;;;;;5013411;28;20133;-78
2023/06/13 02:44:45;;;;;;;7.43;4.68;;;;;;;;;;5013867;28;20084;-78
2023/06/13 02:47:11;;;;;;;7.93;4.38;;;;;;;;;;5024868;28;20038;-80
2023/06/13 02:49:38;;;;;;;6.82;3.75;;;;;;;;;;5039275;28;20041;-75
2023/06/13 02:52:07;;;;;;;7.50;4.28;;;;;;;;;;5033352;28;20520;-79
2023/06/13 02:54:34;;;;;;;6.32;3.65;;;;;;;;;;5033225;28;20068;-79
2023/06/13 02:57:00;;;;;;;8.25;4.10;;;;;;;;;;5034379;28;20045;-78
2023/06/13 02:59:27;;;;;;;7.55;4.05;;;;;;;;;;5021965;28;20129;-79
2023/06/13 03:01:54;;;;;;;7.20;4.18;;;;;;;;;;5015947;28;20104;-77
2023/06/13 03:04:20;;;;;;;7.22;3.92;;;;;;;;;;5015888;28;20105;-79
2023/06/13 03:06:47;;;;;;;6.80;4.38;;;;;;;;;;5015527;28;20085;-79
2023/06/13 03:09:15;;;;;;;9.35;4.28;;;;;;;;;;5015247;28;20100;-78
2023/06/13 03:11:42;;;;;;;6.25;4.20;;;;;;;;;;5015045;28;20072;-77
2023/06/13 03:14:08;;;;;;;6.00;3.88;;;;;;;;;;5015103;28;20084;-80
2023/06/13 03:16:35;;;;;;;6.40;3.83;;;;;;;;;;5015318;28;20489;-79
2023/06/13 03:19:02;;;;;;;6.43;3.70;;;;;;;;;;5033896;28;20148;-78
2023/06/13 03:21:30;;;;;;;6.10;3.63;;;;;;;;;;5032965;28;20092;-79
2023/06/13 03:23:56;;;;;;;6.13;3.30;;;;;;;;;;5032461;28;20052;-79
2023/06/13 03:26:25;;;;;;;5.97;4.03;;;;;;;;;;5032932;28;20041;-79
2023/06/13 03:28:52;;;;;;;6.57;3.88;;;;;;;;;;5032196;28;20088;-77
2023/06/13 03:31:19;;;;;;;7.63;4.03;;;;;;;;;;5013860;28;20497;-78
2023/06/13 03:33:46;;;;;;;6.00;3.72;;;;;;;;;;5025398;28;20103;-77
2023/06/13 03:36:12;;;;;;;6.32;3.67;;;;;;;;;;5032552;28;20049;-77
2023/06/13 03:38:40;;;;;;;6.95;4.18;;;;;;;;;;5032257;28;20059;-77
2023/06/13 03:41:06;;;;;;;5.82;3.88;;;;;;;;;;5032124;28;20476;-78
2023/06/13 03:43:34;;;;;;;6.45;3.63;;;;;;;;;;5032368;28;20049;-76
2023/06/13 03:46:01;;;;;;;6.57;3.78;;;;;;;;;;5032615;28;20132;-78
2023/06/13 03:48:28;;;;;;;5.78;3.97;;;;;;;;;;5032978;28;20427;-79
2023/06/13 03:50:54;;;;;;;6.70;3.95;;;;;;;;;;5035658;28;20046;-79
2023/06/13 03:53:21;;;;;;;6.30;3.90;;;;;;;;;;5021301;28;20101;-78
2023/06/13 03:55:48;;;;;;;5.18;3.63;;;;;;;;;;5020693;28;20077;-79
2023/06/13 03:58:15;;;;;;;6.10;4.15;;;;;;;;;;5018579;28;20108;-78
2023/06/13 04:00:44;;;;;;;6.60;3.88;;;;;;;;;;5020420;28;20050;-78
2023/06/13 04:03:11;;;;;;;6.80;3.75;;;;;;;;;;5035044;28;20045;-79
2023/06/13 04:05:38;;;;;;;6.80;3.85;;;;;;;;;;5035824;28;20056;-79
2023/06/13 04:08:07;;;;;;;6.38;3.78;;;;;;;;;;5035151;28;20140;-79
2023/06/13 04:10:33;;;;;;;9.10;4.47;;;;;;;;;;5035442;28;20073;-79
2023/06/13 04:13:00;;;;;;;6.10;3.95;;;;;;;;;;5027500;28;20087;-79
2023/06/13 04:15:27;;;;;;;6.30;3.75;;;;;;;;;;5035563;28;20116;-78
2023/06/13 04:17:55;;;;;;;9.63;4.38;;;;;;;;;;5032749;28;20398;-79
2023/06/13 04:20:24;;;;;;;8.13;4.32;;;;;;;;;;5036417;28;20041;-79
2023/06/13 04:22:52;;;;;;;6.47;3.50;;;;;;;;;;5028006;28;20128;-80
2023/06/13 04:25:18;;;;;;;6.50;3.63;;;;;;;;;;5018228;28;20504;-79
2023/06/13 04:27:45;;;;;;;6.13;3.83;;;;;;;;;;5015868;28;20084;-78
2023/06/13 04:30:13;;;;;;;7.97;3.47;;;;;;;;;;5015608;28;20335;-79
2023/06/13 04:32:43;;;;;;;6.40;4.32;;;;;;;;;;5023413;28;20076;-79
2023/06/13 04:35:15;;;;;;;5.88;3.67;;;;;;;;;;5036293;28;20069;-79
2023/06/13 04:37:43;;;;;;;6.82;4.00;;;;;;;;;;5039432;28;20055;-80
2023/06/13 04:40:13;;;;;;;5.90;3.72;;;;;;;;;;5039266;28;20049;-80
2023/06/13 04:42:39;;;;;;;9.32;4.03;;;;;;;;;;5034832;28;20110;-79
2023/06/13 04:45:10;;;;;;;7.78;4.03;;;;;;;;;;5027912;28;20083;-79
2023/06/13 04:47:36;;;;;;;6.18;3.80;;;;;;;;;;5039098;28;20053;-79
2023/06/13 04:50:03;;;;;;;7.03;3.63;;;;;;;;;;5039116;28;20041;-79
2023/06/13 04:52:32;;;;;;;8.10;3.65;;;;;;;;;;5040079;28;20053;-79
2023/06/13 04:55:00;;;;;;;6.45;3.80;;;;;;;;;;5031876;28;20067;-79
2023/06/13 04:57:27;;;;;;;7.88;4.45;;;;;;;;;;5039673;28;20057;-80
2023/06/13 04:59:54;;;;;;;5.38;3.53;;;;;;;;;;5038566;28;20141;-78
2023/06/13 05:02:22;;;;;;;5.90;3.75;;;;;;;;;;5037597;28;20107;-78
2023/06/13 05:04:49;;;;;;;8.25;4.25;;;;;;;;;;5026229;28;20171;-79
2023/06/13 05:07:16;;;;;;;5.53;3.92;;;;;;;;;;5038726;28;20488;-80
2023/06/13 05:09:45;;;;;;;5.63;3.30;;;;;;;;;;5040434;28;20049;-79
2023/06/13 05:12:12;;;;;;;5.50;3.30;;;;;;;;;;5026845;28;20049;-80
2023/06/13 05:14:40;;;;;;;8.60;3.63;;;;;;;;;;5022992;28;20073;-78
2023/06/13 05:17:06;;;;;;;5.82;3.38;;;;;;;;;;5021718;28;20053;-79
2023/06/13 05:19:34;;;;;;;6.93;3.50;;;;;;;;;;5019460;28;20056;-79
2023/06/13 05:22:02;;;;;;;6.53;3.85;;;;;;;;;;5019320;28;20053;-78
2023/06/13 05:24:30;;;;;;;7.63;4.07;;;;;;;;;;5027256;28;20129;-78
2023/06/13 05:26:58;;;;;;;8.20;3.95;;;;;;;;;;5018854;28;20423;-79
2023/06/13 05:29:24;;;;;;;6.57;4.28;;;;;;;;;;5018491;28;20508;-81
2023/06/13 05:31:51;;;;;;;6.72;4.05;;;;;;;;;;5018853;28;20053;-78
2023/06/13 05:34:18;;;;;;;6.80;3.60;;;;;;;;;;5024978;28;20059;-78
2023/06/13 05:36:45;;;;;;;6.32;3.63;;;;;;;;;;5022922;28;20042;-79
2023/06/13 05:39:12;;;;;;;5.78;3.80;;;;;;;;;;5044356;28;20064;-79
2023/06/13 05:41:39;;;;;;;6.28;4.20;;;;;;;;;;5039695;28;20049;-80
2023/06/13 05:44:08;;;;;;;7.07;3.42;;;;;;;;;;5038043;28;20072;-80
2023/06/13 05:46:34;;;;;;;5.82;3.47;;;;;;;;;;5022147;28;20073;-80
2023/06/13 05:49:01;;;;;;;5.03;3.33;;;;;;;;;;5019704;28;20048;-80
2023/06/13 05:51:28;;;;;;;7.50;4.10;;;;;;;;;;5023238;28;20477;-80
2023/06/13 05:53:55;;;;;;;7.32;4.18;;;;;;;;;;5032763;28;20584;-80
2023/06/13 05:56:22;;;;;;;6.07;3.53;;;;;;;;;;5027968;28;20109;-79
2023/06/13 05:58:50;;;;;;;7.28;3.70;;;;;;;;;;5047989;28;20054;-78
2023/06/13 06:01:20;;;;;;;7.85;3.67;;;;;;;;;;5045893;28;20056;-78
2023/06/13 06:03:46;;;;;;;7.37;3.60;;;;;;;;;;5026784;28;20054;-79
2023/06/13 06:06:13;;;;;;;8.27;4.00;;;;;;;;;;5026669;28;20087;-78
2023/06/13 06:08:40;;;;;;;6.82;3.22;;;;;;;;;;5034212;28;20085;-78
2023/06/13 06:11:07;;;;;;;6.95;3.63;;;;;;;;;;5035050;28;20054;-78
2023/06/13 06:13:33;;;;;;;7.43;3.70;;;;;;;;;;5020632;28;20052;-78
2023/06/13 06:16:00;;;;;;;6.28;3.70;;;;;;;;;;5013804;28;20085;-77
2023/06/13 06:18:28;;;;;;;5.55;3.72;;;;;;;;;;5013476;28;20053;-76
2023/06/13 06:20:55;;;;;;;7.35;3.40;;;;;;;;;;5013693;28;20081;-77
2023/06/13 06:23:21;;;;;;;6.07;3.67;;;;;;;;;;5014710;28;20099;-77
2023/06/13 06:25:48;;;;;;;6.70;4.00;;;;;;;;;;5015307;28;20140;-76
2023/06/13 06:28:15;;;;;;;5.18;3.33;;;;;;;;;;5016366;28;20052;-76
2023/06/13 06:30:41;;;;;;;6.05;3.83;;;;;;;;;;5023270;28;20042;-76
2023/06/13 06:33:08;;;;;;;7.40;3.47;;;;;;;;;;5020535;28;20049;-81
2023/06/13 06:35:36;;;;;;;6.53;3.80;;;;;;;;;;5037940;28;20076;-80
2023/06/13 06:38:03;;;;;;;5.80;3.47;;;;;;;;;;5032209;28;20042;-75
2023/06/13 06:40:30;;;;;;;7.03;3.75;;;;;;;;;;5018670;28;20107;-75
2023/06/13 06:42:57;;;;;;;9.30;4.88;;;;;;;;;;5016113;28;20128;-75
2023/06/13 06:45:23;;;;;;;5.32;3.72;;;;;;;;;;5016155;28;20096;-76
2023/06/13 06:47:50;;;;;;;6.80;3.42;;;;;;;;;;5013553;28;20046;-77
2023/06/13 06:50:17;;;;;;;5.75;3.50;;;;;;;;;;5013363;28;20049;-75
2023/06/13 06:52:45;;;;;;;5.22;3.42;;;;;;;;;;5013525;28;20050;-75
2023/06/13 06:55:12;;;;;;;6.53;3.55;;;;;;;;;;5014008;28;20042;-75
2023/06/13 06:57:39;;;;;;;7.50;3.72;;;;;;;;;;4993172;28;20046;-77
2023/06/13 07:00:10;;;;;;;6.45;4.00;;;;;;;;;;4993538;28;20757;-77
2023/06/13 07:02:36;;;;;;;7.03;3.92;;;;;;;;;;4995525;28;20333;-76
2023/06/13 07:05:03;;;;;;;6.80;3.95;;;;;;;;;;5013259;28;20100;-77
2023/06/13 07:07:30;;;;;;;6.18;3.70;;;;;;;;;;5025733;28;20077;-76
2023/06/13 07:09:58;;;;;;;6.60;3.45;;;;;;;;;;5012877;28;20081;-77
2023/06/13 07:12:25;;;;;;;6.55;3.78;;;;;;;;;;5013037;28;20125;-76
2023/06/13 07:14:51;;;;;;;5.40;3.33;;;;;;;;;;5012691;28;20431;-78
2023/06/13 07:17:18;;;;;;;7.75;3.72;;;;;;;;;;5013497;28;20050;-78
2023/06/13 07:19:44;;;;;;;6.20;4.25;;;;;;;;;;5012848;28;20052;-78
2023/06/13 07:22:11;;;;;;;7.75;3.70;;;;;;;;;;5013168;28;20125;-76
2023/06/13 07:24:38;;;;;;;7.85;3.92;;;;;;;;;;5013169;28;20084;-77
2023/06/13 07:27:07;;;;;;;6.55;3.88;;;;;;;;;;5028492;28;20092;-76
2023/06/13 07:29:34;;;;;;;5.65;3.50;;;;;;;;;;4992846;28;20068;-78
2023/06/13 07:32:01;;;;;;;5.47;3.25;;;;;;;;;;5009990;28;20462;-76
2023/06/13 07:34:27;;;;;;;6.13;3.28;;;;;;;;;;5014287;28;20129;-78
2023/06/13 07:36:54;;;;;;;5.80;3.50;;;;;;;;;;5014703;28;20424;-78
2023/06/13 07:39:21;;;;;;;5.25;3.35;;;;;;;;;;5017233;28;20060;-78
2023/06/13 07:41:49;;;;;;;6.20;2.97;;;;;;;;;;5018772;28;20049;-78
2023/06/13 07:44:18;;;;;;;8.10;3.67;;;;;;;;;;5016142;28;20048;-78
2023/06/13 07:46:45;;;;;;;6.53;3.67;;;;;;;;;;5020040;28;20046;-76
2023/06/13 07:49:12;;;;;;;5.72;3.53;;;;;;;;;;5018084;28;20049;-77
2023/06/13 07:51:38;;;;;;;6.40;3.33;;;;;;;;;;5020567;28;20065;-80
2023/06/13 07:54:05;;;;;;;6.97;3.28;;;;;;;;;;5023706;28;20056;-79
2023/06/13 07:56:32;;;;;;;7.60;3.10;;;;;;;;;;5023280;28;20076;-78
2023/06/13 07:58:59;;;;;;;6.90;3.70;;;;;;;;;;5017350;28;20125;-77
2023/06/13 08:01:27;;;;;;;6.03;3.40;;;;;;;;;;5019147;28;20200;-77
2023/06/13 08:03:53;;;;;;;5.78;2.90;;;;;;;;;;5020932;28;20143;-78
2023/06/13 08:06:20;;;;;;;5.55;3.40;;;;;;;;;;5026034;28;20045;-76
2023/06/13 08:08:47;;;;;;;6.65;3.67;;;;;;;;;;5017945;28;20255;-76
2023/06/13 08:11:13;;;;;;;5.80;3.05;;;;;;;;;;5021026;28;20108;-79
2023/06/13 08:13:40;;;;;;;7.47;3.20;;;;;;;;;;5029996;28;20076;-78
2023/06/13 08:16:07;;;;;;;6.40;3.25;;;;;;;;;;5020416;28;20053;-78
2023/06/13 08:18:36;;;;;;;5.95;3.20;;;;;;;;;;5020665;28;20073;-78
2023/06/13 08:21:03;;;;;;;6.70;3.28;;;;;;;;;;5019176;28;20038;-76
2023/06/13 08:23:32;;;;;;;5.05;3.15;;;;;;;;;;5013148;28;20104;-76
2023/06/13 08:25:58;;;;;;;5.88;3.08;;;;;;;;;;5013859;28;20177;-78
2023/06/13 08:28:26;;;;;;;7.07;2.85;;;;;;;;;;5013398;28;20038;-76
2023/06/13 08:30:53;;;;;;;6.70;2.92;;;;;;;;;;5014132;28;20053;-77
2023/06/13 08:33:21;;;;;;;5.28;2.90;;;;;;;;;;5015950;28;20052;-78
2023/06/13 08:35:49;;;;;;;5.05;2.90;;;;;;;;;;5017437;28;20138;-77
2023/06/13 08:38:15;;;;;;;5.63;2.92;;;;;;;;;;5015487;28;20066;-79
2023/06/13 08:40:42;;;;;;;6.65;3.00;;;;;;;;;;5016215;28;20077;-78
2023/06/13 08:43:09;;;;;;;6.95;2.63;;;;;;;;;;5015152;28;20048;-79
2023/06/13 08:45:36;;;;;;;6.43;3.40;;;;;;;;;;5013985;28;20042;-78
2023/06/13 08:48:03;;;;;;;7.07;3.00;;;;;;;;;;5013399;28;20133;-78
2023/06/13 08:50:30;;;;;;;6.60;2.90;;;;;;;;;;5013015;28;20720;-77
2023/06/13 08:53:01;;;;;;;6.20;2.75;;;;;;;;;;5014635;28;20104;-79
2023/06/13 08:55:30;;;;;;;6.90;3.40;;;;;;;;;;5013233;28;20195;-77
2023/06/13 08:57:59;;;;;;;5.70;3.17;;;;;;;;;;5015340;28;20497;-79
2023/06/13 09:00:26;;;;;;;5.15;3.10;;;;;;;;;;5014770;28;20188;-78
2023/06/13 09:02:55;;;;;;;5.95;3.13;;;;;;;;;;5014326;28;20042;-77
2023/06/13 09:05:22;;;;;;;5.40;2.73;;;;;;;;;;5013981;28;20108;-79
2023/06/13 09:07:50;;;;;;;4.50;2.97;;;;;;;;;;5013312;28;20046;-78
2023/06/13 09:10:19;;;;;;;7.20;2.90;;;;;;;;;;5012998;28;20233;-78
2023/06/13 09:12:49;;;;;;;5.97;3.08;;;;;;;;;;5013768;28;20076;-80
2023/06/13 09:15:16;;;;;;;5.50;2.97;;;;;;;;;;5013878;28;20096;-79
2023/06/13 09:17:43;;;;;;;7.15;2.95;;;;;;;;;;5013570;28;20049;-79
2023/06/13 09:20:11;;;;;;;5.60;3.00;;;;;;;;;;5013816;28;20049;-80
2023/06/13 09:22:37;;;;;;;5.00;2.60;;;;;;;;;;4993577;28;20046;-77
2023/06/13 09:25:05;;;;;;;4.15;2.60;;;;;;;;;;5021303;28;20073;-80
2023/06/13 09:27:34;;;;;;;7.50;3.40;;;;;;;;;;5019490;28;20050;-76
2023/06/13 09:30:01;;;;;;;6.57;2.77;;;;;;;;;;5013306;28;20080;-78
2023/06/13 09:32:28;;;;;;;7.13;3.03;;;;;;;;;;5032787;28;20636;-80
2023/06/13 09:34:57;;;;;;;6.75;3.10;;;;;;;;;;5033338;28;20049;-79
2023/06/13 09:37:26;;;;;;;5.25;3.10;;;;;;;;;;5036642;28;20045;-80
2023/06/13 09:39:53;;;;;;;7.13;3.03;;;;;;;;;;5027058;28;20045;-77
2023/06/13 09:42:24;;;;;;;6.35;3.38;;;;;;;;;;5023795;28;20041;-79
2023/06/13 09:44:54;;;;;;;8.27;2.90;;;;;;;;;;5014556;28;20077;-81
2023/06/13 09:47:22;;;;;;;7.30;3.20;;;;;;;;;;5017404;28;20425;-80
2023/06/13 09:49:53;;;;;;;7.32;3.10;;;;;;;;;;5011824;28;20042;-80
2023/06/13 09:52:23;;;;;;;5.53;2.72;;;;;;;;;;5015723;28;20049;-78
2023/06/13 09:54:50;;;;;;;5.22;2.78;;;;;;;;;;5015463;28;20074;-80
2023/06/13 09:57:17;;;;;;;5.57;3.00;;;;;;;;;;5018484;28;20053;-84
2023/06/13 09:59:44;;;;;;;6.15;3.08;;;;;;;;;;5018807;28;20164;-79
2023/06/13 10:02:12;;;;;;;6.38;3.83;;;;;;;;;;5014678;28;20515;-76
2023/06/13 10:04:39;;;;;;;6.75;3.67;;;;;;;;;;5013007;28;20042;-78
2023/06/13 10:07:06;;;;;;;5.40;3.20;;;;;;;;;;5012928;28;20050;-77
2023/06/13 10:09:32;;;;;;;6.47;2.97;;;;;;;;;;5012509;28;20092;-78
2023/06/13 10:12:00;;;;;;;6.70;3.42;;;;;;;;;;5013235;28;20149;-77
2023/06/13 10:14:31;;;;;;;6.57;2.78;;;;;;;;;;5013128;28;20049;-77
2023/06/13 10:17:01;;;;;;;5.82;3.30;;;;;;;;;;5012364;28;20061;-78
2023/06/13 10:19:30;;;;;;;;;;;;;;;;;;5015706;28;20046;-79
2023/06/13 10:21:57;;;;;;;4.93;2.80;;;;;;;;;;5029711;28;20376;-77
2023/06/13 10:24:26;;;;;;;4.80;2.80;;;;;;;;;;5006851;28;20096;-77
2023/06/13 10:26:56;;;;;;;8.30;3.08;;;;;;;;;;5011627;28;20076;-77
2023/06/13 10:29:40;;;;;;;6.63;3.10;;;;;;;;;;5011725;28;20042;-78
2023/06/13 10:32:20;;;;;;;5.57;2.90;;;;;;;;;;5004522;28;20088;-77
2023/06/13 10:35:08;;;;;;;6.35;3.10;;;;;;;;;;5012418;28;20048;-77
2023/06/13 10:38:05;;;;;;;5.72;3.00;;;;;;;;;;5012284;28;20069;-78
2023/06/13 10:40:58;;;;;;;6.85;2.90;;;;;;;;;;5011822;28;20597;-77
2023/06/13 10:43:31;;;;;;;4.57;2.83;;;;;;;;;;5007933;28;20156;-78
2023/06/13 10:46:01;;;;;;;6.90;3.22;;;;;;;;;;5013727;28;20058;-77
2023/06/13 10:48:35;;;;;;;;;;;;;;;;;;5013893;28;20132;-77
2023/06/13 10:51:03;;;;;;;7.18;2.90;;;;;;;;;;5014374;28;19922;-76
2023/06/13 10:53:32;;;;;;;5.97;3.13;;;;;;;;;;5013572;28;20085;-78
2023/06/13 10:56:01;;;;;;;5.25;2.72;;;;;;;;;;5012194;28;20053;-77
2023/06/13 10:58:28;;;;;;;7.75;3.58;;;;;;;;;;5011198;28;20103;-77
2023/06/13 11:00:55;;;;;;;6.18;3.17;;;;;;;;;;5011857;28;20100;-77
2023/06/13 11:03:30;;;;;;;6.32;3.45;;;;;;;;;;5011956;28;20050;-79
2023/06/13 11:05:57;;;;;;;5.35;3.20;;;;;;;;;;5012523;28;20085;-77
2023/06/13 11:08:25;;;;;;;6.90;3.40;;;;;;;;;;5011095;28;20077;-78
2023/06/13 11:10:53;;;;;;;5.63;2.90;;;;;;;;;;5010966;28;20058;-76
2023/06/13 11:13:21;;;;;;;7.30;3.50;;;;;;;;;;5011187;28;20270;-78
2023/06/13 11:15:50;;;;;;;5.22;2.88;;;;;;;;;;5010752;28;20164;-77
2023/06/13 11:18:34;;;;;;;6.38;2.85;;;;;;;;;;5010352;28;20050;-79
2023/06/13 11:21:03;;;;;;;5.78;3.13;;;;;;;;;;5010544;28;20056;-79
2023/06/13 11:23:55;;;;;;;6.13;3.45;;;;;;;;;;5015633;28;20042;-83
2023/06/13 11:26:22;;;;;;;6.82;3.13;;;;;;;;;;5002881;28;20045;-77
2023/06/13 11:28:50;;;;;;;5.90;3.25;;;;;;;;;;5011529;28;20053;-79
2023/06/13 11:31:18;;;;;;;5.22;3.13;;;;;;;;;;5011821;28;20050;-78
2023/06/13 11:33:47;;;;;;;6.15;3.00;;;;;;;;;;5012550;28;20056;-79
2023/06/13 11:36:15;;;;;;;6.43;3.13;;;;;;;;;;5015493;28;20116;-78
2023/06/13 11:38:45;;;;;;;5.07;3.28;;;;;;;;;;5013495;28;20128;-79
2023/06/13 11:41:13;;;;;;;4.97;2.80;;;;;;;;;;5015809;28;20077;-78
2023/06/13 11:43:40;;;;;;;7.07;2.95;;;;;;;;;;5029160;28;20116;-75
2023/06/13 11:46:07;;;;;;;4.90;3.20;;;;;;;;;;5030942;28;20393;-77
2023/06/13 11:48:34;;;;;;;5.55;3.30;;;;;;;;;;5016124;28;20076;-78
2023/06/13 11:51:11;;;;;;;6.03;3.10;;;;;;;;;;5014534;28;20116;-78
2023/06/13 11:53:48;;;;;;;5.55;3.33;;;;;;;;;;5020299;28;20049;-77
2023/06/13 11:56:17;;;;;;;4.32;3.05;;;;;;;;;;5028839;28;20460;-79
2023/06/13 11:58:44;;;;;;;5.95;3.03;;;;;;;;;;5035019;28;20068;-78
2023/06/13 12:01:15;;;;;;;6.65;3.50;;;;;;;;;;5044571;28;20046;-78
2023/06/13 12:03:43;;;;;;;5.88;2.97;;;;;;;;;;5019895;28;20080;-79
2023/06/13 12:06:10;;;;;;;5.45;2.83;;;;;;;;;;5012846;28;20102;-77
2023/06/13 12:08:37;;;;;;;6.30;3.40;;;;;;;;;;5013085;28;20049;-79
2023/06/13 12:11:05;;;;;;;7.57;3.55;;;;;;;;;;5012566;28;20061;-79
2023/06/13 12:13:34;;;;;;;6.28;3.60;;;;;;;;;;5011851;28;20575;-79
2023/06/13 12:16:01;;;;;;;7.07;3.63;;;;;;;;;;5024951;22;20049;-62
2023/06/13 12:18:28;;;;;;;4.90;2.92;;;;;;;;;;5021868;28;20048;-65
2023/06/13 12:20:56;;;;;;;6.32;3.30;;;;;;;;;;5022343;28;20038;-61
2023/06/13 12:23:24;;;;;;;6.40;3.60;;;;;;;;;;5032161;28;20049;-63
2023/06/13 12:25:52;;;;;;;5.63;3.20;;;;;;;;;;5049093;28;20057;-62
2023/06/13 12:28:19;;;;;;;5.25;2.95;;;;;;;;;;5049169;28;20489;-62
2023/06/13 12:30:49;;;;;;;6.38;3.10;;;;;;;;;;5048672;28;20143;-62
2023/06/13 12:33:19;;;;;;;5.00;3.05;;;;;;;;;;5010033;28;20085;-62
2023/06/13 12:35:51;;;;;;;7.70;3.00;;;;;;;;;;5009831;28;20121;-63
2023/06/13 12:38:19;;;;;;;6.95;3.33;;;;;;;;;;5009679;28;20065;-62
2023/06/13 12:40:51;;;;;;;6.57;3.30;;;;;;;;;;5009415;28;20549;-63
2023/06/13 12:43:19;;;;;;;5.20;2.80;;;;;;;;;;5009743;28;20069;-62
2023/06/13 12:45:46;;;;;;;8.63;3.78;;;;;;;;;;5022871;28;20128;-63
2023/06/13 12:48:18;;;;;;;7.57;3.30;;;;;;;;;;5029290;28;20045;-62
2023/06/13 12:50:46;;;;;;;5.90;3.33;;;;;;;;;;5028612;28;20050;-63
2023/06/13 12:53:13;;;;;;;4.65;3.10;;;;;;;;;;5029120;28;20141;-63
2023/06/13 12:55:43;;;;;;;6.45;2.95;;;;;;;;;;5020518;28;20045;-60
2023/06/13 12:58:28;;;;;;;;;;;;;;;;;;5013269;28;20060;-62
2023/06/13 13:00:55;;;;;;;5.18;2.88;;;;;;;;;;5012883;28;20298;-63
2023/06/13 13:03:24;;;;;;;6.25;3.63;;;;;;;;;;5012918;28;20053;-64
2023/06/13 13:05:51;;;;;;;4.63;3.17;;;;;;;;;;5012640;28;20418;-63
2023/06/13 13:08:19;;;;;;;5.18;3.50;;;;;;;;;;5012678;28;20100;-65
2023/06/13 13:10:47;;;;;;;6.25;3.63;;;;;;;;;;5021158;28;20077;-63
2023/06/13 13:13:14;;;;;;;6.25;3.67;;;;;;;;;;5031845;28;20089;-62
2023/06/13 13:15:41;;;;;;;5.88;3.25;;;;;;;;;;5021012;28;20080;-61
2023/06/13 13:18:08;;;;;;;6.15;3.70;;;;;;;;;;5027089;28;20494;-65
2023/06/13 13:20:36;;;;;;;7.57;3.00;;;;;;;;;;5012213;28;20680;-61
2023/06/13 13:23:03;;;;;;;7.50;5.13;;;;;;;;;;5012795;28;20490;-70
2023/06/13 13:25:32;;;;;;;47.58;24.20;;;;;;;;;;5012639;28;20056;-69
2023/06/13 13:27:59;;;;;;;13.68;7.38;;;;;;;;;;5029493;28;20049;-68
2023/06/13 13:30:26;;;;;;;10.40;5.32;;;;;;;;;;5024116;28;20124;-63
2023/06/13 13:32:53;;;;;;;17.02;10.23;;;;;;;;;;5024729;28;20435;-63
2023/06/13 13:35:20;;;;;;;18.80;9.10;;;;;;;;;;5030075;28;20057;-62
2023/06/13 13:37:49;;;;;;;13.85;6.90;;;;;;;;;;5031609;28;20517;-62
2023/06/13 13:40:17;;;;;;;9.45;6.50;;;;;;;;;;5031087;28;20521;-64
2023/06/13 13:42:44;;;;;;;16.80;11.35;;;;;;;;;;5032002;28;20714;-66
2023/06/13 13:45:11;;;;;;;109.35;52.20;;;;;;;;;;5031345;28;20049;-66
2023/06/13 13:47:41;;;;;;;49.80;26.23;;;;;;;;;;5031810;28;20057;-62
2023/06/13 13:50:08;;;;;;;31.38;15.75;;;;;;;;;;5022933;28;20133;-63
2023/06/13 13:52:35;;;;;;;24.42;13.30;;;;;;;;;;5029922;28;20469;-63
2023/06/13 13:55:04;;;;;;;23.83;12.50;;;;;;;;;;5031827;28;20053;-61
2023/06/13 13:57:31;;;;;;;16.65;10.48;;;;;;;;;;5011740;28;20049;-63
2023/06/13 13:59:59;;;;;;;23.92;13.73;;;;;;;;;;5011521;28;20080;-62
2023/06/13 14:02:26;;;;;;;25.95;16.40;;;;;;;;;;5011831;28;20100;-61
2023/06/13 14:04:53;;;;;;;15.05;9.95;;;;;;;;;;5023566;28;20061;-62
2023/06/13 14:07:22;;;;;;;13.32;7.80;;;;;;;;;;5011488;28;20079;-61
2023/06/13 14:09:49;;;;;;;8.15;4.78;;;;;;;;;;5011737;28;20411;-61
2023/06/13 14:12:17;;;;;;;13.75;7.63;;;;;;;;;;5011415;28;20057;-64
2023/06/13 14:14:44;;;;;;;9.38;5.15;;;;;;;;;;5011840;28;20046;-63
2023/06/13 14:17:11;;;;;;;12.73;7.60;;;;;;;;;;5011390;28;20103;-63
2023/06/13 14:19:37;;;;;;;6.53;4.05;;;;;;;;;;5011422;28;20050;-62
2023/06/13 14:22:05;;;;;;;6.00;4.20;;;;;;;;;;5013409;28;20510;-62
2023/06/13 14:24:32;;;;;;;6.35;4.07;;;;;;;;;;5024080;28;20099;-62
2023/06/13 14:26:59;;;;;;;6.65;4.05;;;;;;;;;;5011639;28;20053;-62
2023/06/13 14:29:27;;;;;;;8.40;5.25;;;;;;;;;;5038056;28;20477;-62
2023/06/13 14:31:54;;;;;;;6.78;4.18;;;;;;;;;;5022353;28;20046;-64
2023/06/13 14:34:21;;;;;;;8.02;4.68;;;;;;;;;;5011578;28;20096;-63
2023/06/13 14:36:53;;;;;;;7.85;4.78;;;;;;;;;;5011683;28;20557;-62
2023/06/13 14:39:20;;;;;;;9.63;5.80;;;;;;;;;;5030704;28;20080;-61
2023/06/13 14:41:47;;;;;;;7.40;4.35;;;;;;;;;;5028700;28;20061;-62
2023/06/13 14:44:14;;;;;;;6.40;4.63;;;;;;;;;;5019488;28;20054;-63
2023/06/13 14:46:42;;;;;;;7.47;4.68;;;;;;;;;;5020706;28;20534;-61
2023/06/13 14:49:09;;;;;;;6.25;3.92;;;;;;;;;;5016259;28;20054;-63